N135R -KORK
Flight info
| Callsign | N135R |
|---|---|
| Flight time | N/A |
| Altitude | VFR/020 |
| Route | |
| Aircraft | PA28/L-DOV/C |
Departure
| Time | N/A |
|---|---|
| Airport | - |
Arrival
| Time | 2026-05-09 00:29 |
|---|---|
| Airport | North Little Rock Municipal Airport (KORK) |
| Time | Latitude | Longitude | Altitude | Speed | Heading |
|---|---|---|---|---|---|
| 2026-05-09 00:22 | 34.70982 | -92.24363 | 1420 ft | 105 kts | 247° |
| 2026-05-09 00:22 | 34.70962 | -92.25343 | 1382 ft | 120 kts | 266° |
| 2026-05-09 00:22 | 34.71100 | -92.26357 | 1399 ft | 129 kts | 292° |
| 2026-05-09 00:22 | 34.71842 | -92.27011 | 1424 ft | 137 kts | 345° |
| 2026-05-09 00:23 | 34.72468 | -92.27040 | 1458 ft | 139 kts | 4° |
| 2026-05-09 00:23 | 34.73459 | -92.26907 | 1430 ft | 145 kts | 6° |
| 2026-05-09 00:23 | 34.74440 | -92.26776 | 1490 ft | 140 kts | 6° |
| 2026-05-09 00:23 | 34.75438 | -92.26694 | 1462 ft | 144 kts | 0° |
| 2026-05-09 00:24 | 34.76436 | -92.26743 | 1501 ft | 144 kts | 355° |
| 2026-05-09 00:24 | 34.77414 | -92.26957 | 1572 ft | 141 kts | 342° |
| 2026-05-09 00:24 | 34.78349 | -92.27369 | 1628 ft | 140 kts | 334° |
| 2026-05-09 00:24 | 34.79259 | -92.27821 | 1659 ft | 144 kts | 336° |
| 2026-05-09 00:25 | 34.80215 | -92.28274 | 1672 ft | 147 kts | 338° |
| 2026-05-09 00:25 | 34.81184 | -92.28591 | 1686 ft | 148 kts | 349° |
| 2026-05-09 00:25 | 34.82218 | -92.28576 | 1700 ft | 147 kts | 12° |
| 2026-05-09 00:25 | 34.83097 | -92.27955 | 1599 ft | 149 kts | 46° |
| 2026-05-09 00:26 | 34.83789 | -92.27116 | 1662 ft | 127 kts | 51° |
| 2026-05-09 00:26 | 34.84328 | -92.26392 | 1675 ft | 105 kts | 54° |
| 2026-05-09 00:26 | 34.84716 | -92.25841 | 1788 ft | 76 kts | 58° |
| 2026-05-09 00:26 | 34.85057 | -92.25315 | 1649 ft | 81 kts | 63° |
| 2026-05-09 00:27 | 34.85378 | -92.24752 | 1542 ft | 79 kts | 65° |
| 2026-05-09 00:27 | 34.85453 | -92.24166 | 1428 ft | 70 kts | 121° |
| 2026-05-09 00:27 | 34.85114 | -92.23784 | 1287 ft | 68 kts | 154° |
| 2026-05-09 00:27 | 34.84709 | -92.23506 | 1119 ft | 67 kts | 158° |
| 2026-05-09 00:28 | 34.84288 | -92.23468 | 962 ft | 63 kts | 213° |
| 2026-05-09 00:28 | 34.84013 | -92.23879 | 765 ft | 63 kts | 229° |
| 2026-05-09 00:28 | 34.83764 | -92.24333 | 650 ft | 63 kts | 230° |
| 2026-05-09 00:28 | 34.83511 | -92.24766 | 536 ft | 57 kts | 232° |
| 2026-05-09 00:29 | 34.83324 | -92.25083 | 536 ft | 36 kts | 236° |
| 2026-05-09 00:29 | 34.83316 | -92.25219 | 540 ft | 14 kts | 329° |
| 2026-05-09 00:29 | 34.83362 | -92.25296 | 541 ft | 11 kts | 269° |
| 2026-05-09 00:29 | 34.83360 | -92.25400 | 542 ft | 13 kts | 270° |
| 2026-05-09 00:30 | 34.83360 | -92.25525 | 542 ft | 16 kts | 269° |
| 2026-05-09 00:30 | 34.83358 | -92.25674 | 543 ft | 19 kts | 268° |
| 2026-05-09 00:30 | 34.83357 | -92.25830 | 543 ft | 17 kts | 269° |
| 2026-05-09 00:30 | 34.83342 | -92.25877 | 543 ft | 5 kts | 211° |
| 2026-05-09 00:31 | 34.83306 | -92.25881 | 544 ft | 5 kts | 185° |